Time;durP1;ratioP1;P1;durP2;ratioP2;P2;SDS_P1;SDS_P2;PMS_P1;PMS_P2;Temp;Humidity;BMP_temperature;BMP_pressure;BME280_temperature;BME280_humidity;BME280_pressure;Samples;Min_cycle;Max_cycle;Signal;HPM_P1;HPM_P2
2023/02/09 00:01:15;;;;;;;4.07;3.25;;;12.00;51.50;;;;;;5004858;28;20030;-80
2023/02/09 00:03:41;;;;;;;3.47;3.13;;;12.00;51.50;;;;;;5003904;28;20100;-79
2023/02/09 00:06:10;;;;;;;3.90;2.90;;;12.00;51.50;;;;;;4986120;28;20418;-79
2023/02/09 00:08:36;;;;;;;4.07;3.28;;;12.00;51.50;;;;;;5003157;28;20495;-79
2023/02/09 00:14:16;;;;;;;3.30;2.97;;;12.00;51.50;;;;;;5003167;28;20034;-82
2023/02/09 00:16:42;;;;;;;4.25;3.03;;;12.00;51.50;;;;;;4984843;28;20026;-81
2023/02/09 00:19:08;;;;;;;3.30;2.72;;;12.00;51.60;;;;;;5004411;28;20041;-80
2023/02/09 00:21:34;;;;;;;5.65;3.03;;;12.00;51.70;;;;;;4985708;28;20036;-80
2023/02/09 00:24:00;;;;;;;4.03;3.22;;;12.00;51.70;;;;;;5003923;28;20084;-80
2023/02/09 00:26:26;;;;;;;3.10;2.55;;;12.00;51.70;;;;;;4986915;28;20037;-80
2023/02/09 00:28:52;;;;;;;4.15;2.80;;;12.00;51.80;;;;;;5002528;28;20089;-79
2023/02/09 00:31:20;;;;;;;3.58;2.58;;;12.00;51.80;;;;;;5004931;28;20040;-79
2023/02/09 00:33:46;;;;;;;4.35;3.20;;;12.10;51.80;;;;;;5003861;28;20399;-80
2023/02/09 00:36:13;;;;;;;5.28;3.30;;;12.10;51.70;;;;;;5004707;28;20040;-80
2023/02/09 00:38:40;;;;;;;4.40;2.97;;;12.10;51.70;;;;;;5000050;28;20091;-81
2023/02/09 00:41:09;;;;;;;4.88;3.55;;;12.00;51.70;;;;;;5004605;28;20511;-79
2023/02/09 00:43:37;;;;;;;3.80;3.33;;;12.00;51.60;;;;;;4989208;28;20041;-79
2023/02/09 00:46:03;;;;;;;4.10;3.17;;;12.00;51.60;;;;;;4984220;28;20116;-80
2023/02/09 00:48:28;;;;;;;4.13;3.15;;;12.00;51.70;;;;;;4958441;28;20062;-80
2023/02/09 00:50:55;;;;;;;3.97;3.30;;;12.10;51.70;;;;;;4957913;28;20556;-79
2023/02/09 00:53:22;;;;;;;2.95;2.65;;;12.00;51.60;;;;;;5003498;28;20040;-79
2023/02/09 00:55:48;;;;;;;3.60;2.95;;;12.10;51.70;;;;;;5003927;28;20031;-79
2023/02/09 00:58:16;;;;;;;3.03;2.63;;;12.10;51.70;;;;;;4970383;28;20717;-80
2023/02/09 01:00:42;;;;;;;3.47;2.75;;;12.10;51.70;;;;;;4983551;28;20069;-81
2023/02/09 01:03:08;;;;;;;3.92;3.17;;;12.10;51.80;;;;;;4986313;28;20045;-79
2023/02/09 01:05:41;;;;;;;4.75;2.75;;;12.00;51.70;;;;;;4988307;28;20030;-80
2023/02/09 01:08:08;;;;;;;2.67;2.40;;;12.10;51.70;;;;;;5004120;28;20450;-79
2023/02/09 01:10:34;;;;;;;3.25;2.80;;;12.10;51.80;;;;;;5003306;28;20038;-80
2023/02/09 01:13:00;;;;;;;3.63;2.83;;;12.10;51.80;;;;;;5003253;28;20034;-79
2023/02/09 01:15:28;;;;;;;3.92;3.20;;;12.10;51.80;;;;;;4990395;28;20037;-79
2023/02/09 01:17:54;;;;;;;3.85;3.17;;;12.10;51.80;;;;;;4985710;28;20116;-79
2023/02/09 01:20:20;;;;;;;3.55;2.83;;;12.10;51.80;;;;;;4990632;28;21881;-80
2023/02/09 01:22:46;;;;;;;6.43;3.13;;;12.10;51.70;;;;;;4974758;28;20558;-80
2023/02/09 01:25:12;;;;;;;3.30;2.67;;;12.10;51.80;;;;;;4974305;28;20034;-81
2023/02/09 01:27:39;;;;;;;3.08;2.78;;;12.10;51.80;;;;;;5004782;28;20523;-81
2023/02/09 01:30:05;;;;;;;4.50;2.72;;;12.10;51.80;;;;;;5003070;28;20026;-81
2023/02/09 01:32:31;;;;;;;3.30;2.83;;;12.10;51.80;;;;;;5001455;28;20547;-81
2023/02/09 01:34:57;;;;;;;3.47;2.83;;;12.10;51.80;;;;;;4974402;28;20038;-80
2023/02/09 01:37:24;;;;;;;3.20;2.90;;;12.10;51.80;;;;;;4983159;28;20041;-80
2023/02/09 01:39:50;;;;;;;3.03;2.72;;;12.10;51.90;;;;;;5005314;28;20030;-80
2023/02/09 01:42:19;;;;;;;3.35;2.90;;;12.10;51.80;;;;;;4986617;28;20040;-80
2023/02/09 01:44:46;;;;;;;3.72;3.08;;;12.10;51.80;;;;;;4986753;28;20041;-80
2023/02/09 01:47:17;;;;;;;2.90;2.45;;;12.10;51.90;;;;;;5002851;28;20049;-81
2023/02/09 01:49:46;;;;;;;3.63;2.90;;;12.10;51.90;;;;;;4982613;28;20042;-81
2023/02/09 01:52:22;;;;;;;3.03;2.60;;;12.10;51.90;;;;;;4985381;28;20432;-81
2023/02/09 01:54:54;;;;;;;3.15;2.80;;;12.10;51.80;;;;;;4985046;28;20042;-80
2023/02/09 01:57:34;;;;;;;3.05;2.75;;;12.10;51.80;;;;;;4985502;28;20062;-79
2023/02/09 02:00:06;;;;;;;3.38;2.67;;;12.10;51.80;;;;;;5002505;28;21489;-80
2023/02/09 02:02:42;;;;;;;3.65;2.85;;;12.10;51.80;;;;;;4985948;28;20086;-80
2023/02/09 02:05:08;;;;;;;3.50;2.97;;;12.10;51.70;;;;;;5002230;28;20416;-80
2023/02/09 02:07:43;;;;;;;3.20;2.85;;;12.10;51.80;;;;;;4985926;28;20060;-81
2023/02/09 02:10:10;;;;;;;4.05;2.75;;;12.10;51.80;;;;;;4973747;28;20057;-80
2023/02/09 02:12:36;;;;;;;3.20;2.90;;;12.10;51.80;;;;;;4968646;28;20472;-81
2023/02/09 02:15:03;;;;;;;3.40;3.08;;;12.10;51.80;;;;;;5002383;28;20124;-79
2023/02/09 02:17:48;;;;;;;3.03;2.65;;;12.10;51.80;;;;;;4985722;28;20030;-80
2023/02/09 02:20:20;;;;;;;3.67;2.97;;;12.10;51.90;;;;;;5000316;28;20589;-81
2023/02/09 02:23:23;;;;;;;3.95;2.83;;;12.10;51.80;;;;;;4969344;28;20396;-81
2023/02/09 02:25:58;;;;;;;3.20;2.90;;;12.10;51.90;;;;;;4911466;29;20523;-81
2023/02/09 02:28:27;;;;;;;4.07;3.22;;;12.10;51.80;;;;;;4895749;29;20051;-80
2023/02/09 02:30:59;;;;;;;3.50;3.13;;;12.10;51.90;;;;;;4905497;29;20031;-80
2023/02/09 02:33:45;;;;;;;3.55;3.25;;;12.10;51.90;;;;;;4912077;29;20028;-79
2023/02/09 02:36:27;;;;;;;3.60;2.70;;;12.10;52.00;;;;;;4928233;29;20044;-82
2023/02/09 02:39:02;;;;;;;3.47;2.78;;;12.10;51.90;;;;;;4928335;29;20039;-80
2023/02/09 02:42:47;;;;;;;3.38;2.92;;;12.10;51.90;;;;;;4912130;29;20039;-80
2023/02/09 02:44:26;;;;;;;3.35;2.88;;;12.10;51.90;;;;;;4910406;29;20035;-79
2023/02/09 02:46:56;;;;;;;3.22;2.92;;;12.20;51.90;;;;;;4926286;29;20031;-81
2023/02/09 02:49:23;;;;;;;4.65;3.22;;;12.10;51.90;;;;;;4911714;29;20081;-81
2023/02/09 02:51:53;;;;;;;3.63;3.22;;;12.10;51.90;;;;;;4927434;29;20478;-81
2023/02/09 02:54:27;;;;;;;3.33;3.00;;;12.20;51.90;;;;;;4926811;29;20047;-80
2023/02/09 02:56:57;;;;;;;5.43;3.50;;;12.20;51.90;;;;;;4927291;29;20131;-79
2023/02/09 02:59:31;;;;;;;3.25;2.90;;;12.10;52.00;;;;;;4904974;29;20035;-79
2023/02/09 03:02:06;;;;;;;4.28;3.05;;;12.20;52.00;;;;;;4963672;28;20444;-79
2023/02/09 03:04:34;;;;;;;4.35;3.40;;;12.20;51.90;;;;;;4987505;28;20038;-78
2023/02/09 03:07:03;;;;;;;3.40;2.97;;;12.20;51.90;;;;;;4985293;28;20488;-79
2023/02/09 03:09:29;;;;;;;4.03;3.20;;;12.20;51.90;;;;;;4999811;28;20081;-78
2023/02/09 03:11:59;;;;;;;3.33;3.00;;;12.10;51.80;;;;;;5000259;28;20401;-78
2023/02/09 03:14:41;;;;;;;3.85;3.13;;;12.20;51.80;;;;;;5001014;28;20452;-80
2023/02/09 03:17:23;;;;;;;4.15;3.20;;;12.20;51.80;;;;;;4984557;28;20042;-81
2023/02/09 03:20:02;;;;;;;3.80;3.15;;;12.20;51.90;;;;;;5001778;28;20477;-81
2023/02/09 03:22:34;;;;;;;3.38;2.83;;;12.20;51.90;;;;;;5002601;28;20374;-78
2023/02/09 03:25:21;;;;;;;3.88;3.08;;;12.20;51.90;;;;;;5001013;28;20040;-78
2023/02/09 03:27:56;;;;;;;3.58;3.05;;;12.20;51.90;;;;;;4985159;28;20412;-80
2023/02/09 03:30:23;;;;;;;3.10;2.80;;;12.20;51.90;;;;;;4983373;28;20176;-82
2023/02/09 03:32:54;;;;;;;4.35;2.90;;;12.20;51.90;;;;;;4986754;28;20045;-83
2023/02/09 03:35:23;;;;;;;4.53;2.90;;;12.20;51.90;;;;;;4973563;28;20034;-83
2023/02/09 03:37:49;;;;;;;2.92;2.72;;;12.20;52.00;;;;;;4973935;28;20026;-82
2023/02/09 03:40:18;;;;;;;3.17;2.88;;;12.20;52.00;;;;;;5005358;28;20026;-83
2023/02/09 03:42:44;;;;;;;4.18;2.92;;;12.20;52.00;;;;;;4989144;28;20073;-85
2023/02/09 03:45:10;;;;;;;3.85;2.65;;;12.20;52.10;;;;;;4970328;28;20079;-84
2023/02/09 03:47:36;;;;;;;3.35;2.58;;;12.20;52.10;;;;;;4986875;28;20483;-87
2023/02/09 03:50:05;;;;;;;3.22;2.90;;;12.20;52.10;;;;;;5007160;28;20034;-88
2023/02/09 03:52:32;;;;;;;4.35;2.75;;;12.20;52.10;;;;;;5007139;28;20041;-87
2023/02/09 03:54:58;;;;;;;6.03;2.90;;;12.20;52.10;;;;;;4974892;28;20035;-86
2023/02/09 03:57:24;;;;;;;3.38;2.83;;;12.20;52.10;;;;;;4987339;28;20050;-86
2023/02/09 03:59:50;;;;;;;2.60;2.40;;;12.20;52.10;;;;;;4973497;28;20021;-89
2023/02/09 04:02:16;;;;;;;3.78;2.60;;;12.20;52.10;;;;;;4986815;28;20033;-86
2023/02/09 04:04:43;;;;;;;3.88;2.72;;;12.20;52.10;;;;;;4984908;28;20061;-85
2023/02/09 04:07:10;;;;;;;5.63;2.80;;;12.20;52.10;;;;;;4969923;28;20049;-84
2023/02/09 04:09:36;;;;;;;3.90;2.85;;;12.20;52.10;;;;;;5004730;28;20132;-78
2023/02/09 04:12:03;;;;;;;3.15;2.85;;;12.20;52.10;;;;;;5004471;28;20057;-77
2023/02/09 04:14:29;;;;;;;5.88;3.30;;;12.20;52.10;;;;;;5002617;28;20535;-77
2023/02/09 04:16:55;;;;;;;3.28;2.95;;;12.20;52.10;;;;;;5005422;28;20029;-77
2023/02/09 04:19:21;;;;;;;4.70;3.08;;;12.20;52.10;;;;;;4986161;28;20034;-77
2023/02/09 04:21:47;;;;;;;3.70;2.95;;;12.20;52.10;;;;;;5003162;28;20022;-78
2023/02/09 04:24:13;;;;;;;3.78;3.20;;;12.20;52.10;;;;;;5004464;28;20076;-74
2023/02/09 04:26:39;;;;;;;4.82;3.20;;;12.20;52.20;;;;;;4999418;28;20049;-76
2023/02/09 04:29:05;;;;;;;3.75;3.10;;;12.30;52.20;;;;;;5002904;28;20509;-76
2023/02/09 04:31:31;;;;;;;4.80;3.30;;;12.20;52.10;;;;;;5002697;28;20030;-75
2023/02/09 04:33:57;;;;;;;3.53;3.20;;;12.20;52.10;;;;;;4999712;28;20037;-76
2023/02/09 04:36:23;;;;;;;3.92;3.30;;;12.20;52.20;;;;;;5004131;28;20066;-78
2023/02/09 04:38:49;;;;;;;3.72;3.10;;;12.20;52.20;;;;;;5005124;28;20065;-76
2023/02/09 04:41:15;;;;;;;4.00;3.42;;;12.20;52.20;;;;;;4984473;28;20164;-75
2023/02/09 04:43:41;;;;;;;3.95;3.40;;;12.20;52.30;;;;;;5003671;28;20037;-78
2023/02/09 04:46:12;;;;;;;5.10;3.45;;;12.20;52.40;;;;;;5004191;28;20045;-79
2023/02/09 04:48:39;;;;;;;4.38;3.03;;;12.20;52.60;;;;;;5013112;28;20040;-78
2023/02/09 04:51:05;;;;;;;6.63;3.42;;;12.30;52.80;;;;;;4995229;28;20230;-78
2023/02/09 04:53:31;;;;;;;4.95;3.03;;;12.30;53.00;;;;;;4993619;28;20049;-79
2023/02/09 04:55:57;;;;;;;5.00;3.50;;;12.30;53.10;;;;;;5001768;28;20173;-78
2023/02/09 05:01:11;;;;;;;4.72;3.38;;;12.30;53.30;;;;;;5003645;28;20044;-78
2023/02/09 05:03:36;;;;;;;5.20;3.10;;;12.30;53.40;;;;;;4986286;28;20048;-78
2023/02/09 05:06:04;;;;;;;3.53;2.92;;;12.30;53.60;;;;;;5001734;28;20045;-78
2023/02/09 05:08:31;;;;;;;4.18;3.38;;;12.30;53.70;;;;;;4967738;28;20516;-77
2023/02/09 05:10:57;;;;;;;4.43;3.53;;;12.30;54.30;;;;;;4987741;28;20459;-78
2023/02/09 05:13:24;;;;;;;5.57;3.88;;;12.30;53.90;;;;;;4983641;28;20025;-78
2023/02/09 05:15:50;;;;;;;4.10;2.97;;;12.30;53.90;;;;;;4984130;28;20041;-78
2023/02/09 05:18:16;;;;;;;5.45;3.50;;;12.30;53.90;;;;;;5002647;28;20033;-78
2023/02/09 05:20:44;;;;;;;5.22;3.50;;;12.30;53.90;;;;;;4986841;28;20440;-78
2023/02/09 05:23:10;;;;;;;3.78;3.00;;;12.30;53.90;;;;;;5003506;28;20049;-78
2023/02/09 05:25:37;;;;;;;4.22;3.20;;;12.30;53.90;;;;;;5004108;28;20818;-78
2023/02/09 05:28:03;;;;;;;5.80;4.13;;;12.30;53.80;;;;;;5001646;28;20517;-78
2023/02/09 05:30:30;;;;;;;5.03;3.47;;;12.30;53.80;;;;;;5002775;28;20938;-78
2023/02/09 05:32:56;;;;;;;5.07;3.15;;;12.30;53.80;;;;;;5002145;28;20459;-78
2023/02/09 05:35:22;;;;;;;4.22;3.33;;;12.30;53.70;;;;;;5005882;28;20493;-78
2023/02/09 05:37:48;;;;;;;4.30;3.50;;;12.30;53.80;;;;;;5003838;28;20041;-78
2023/02/09 05:40:14;;;;;;;4.95;3.58;;;12.30;53.60;;;;;;4985258;28;20033;-78
2023/02/09 05:42:40;;;;;;;4.43;3.25;;;12.30;53.60;;;;;;5003104;28;20044;-78
2023/02/09 05:45:07;;;;;;;9.85;3.97;;;12.30;53.50;;;;;;5002657;28;20066;-78
2023/02/09 05:47:34;;;;;;;8.02;3.75;;;12.30;53.40;;;;;;4983696;28;20026;-78
2023/02/09 05:50:00;;;;;;;8.38;3.50;;;12.40;53.40;;;;;;4984483;28;20116;-78
2023/02/09 05:52:27;;;;;;;4.70;3.60;;;12.30;53.30;;;;;;4984450;28;20120;-78
2023/02/09 05:54:53;;;;;;;4.78;3.90;;;12.30;53.20;;;;;;4968030;28;20033;-78
2023/02/09 05:57:19;;;;;;;4.72;3.47;;;12.30;53.10;;;;;;4984671;28;20041;-77
2023/02/09 05:59:44;;;;;;;4.90;3.97;;;12.30;53.10;;;;;;4986566;28;20026;-81
2023/02/09 06:02:10;;;;;;;6.53;5.43;;;12.40;53.10;;;;;;4981509;28;20037;-79
2023/02/09 06:04:37;;;;;;;9.80;5.80;;;12.30;52.80;;;;;;5001739;28;20739;-77
2023/02/09 06:07:03;;;;;;;7.50;6.28;;;12.30;51.50;;;;;;5000205;28;20413;-78
2023/02/09 06:09:29;;;;;;;8.35;6.28;;;12.20;50.90;;;;;;4982740;28;20408;-78
2023/02/09 06:11:55;;;;;;;8.23;6.45;;;12.10;50.70;;;;;;4998906;28;20034;-77
2023/02/09 06:14:21;;;;;;;9.27;6.43;;;12.00;50.70;;;;;;4998140;28;20518;-78
2023/02/09 06:16:48;;;;;;;8.73;7.15;;;11.90;50.60;;;;;;4999470;28;20505;-78
2023/02/09 06:19:16;;;;;;;8.05;6.80;;;11.90;50.70;;;;;;4982825;28;20084;-78
2023/02/09 06:21:43;;;;;;;9.70;7.13;;;11.70;50.70;;;;;;5000630;28;20045;-77
2023/02/09 06:24:10;;;;;;;8.23;6.30;;;11.70;50.80;;;;;;4966374;28;20046;-79
2023/02/09 06:26:36;;;;;;;9.18;6.80;;;11.50;50.70;;;;;;4987350;28;20046;-79
2023/02/09 06:29:02;;;;;;;8.85;7.28;;;11.40;50.90;;;;;;4983450;28;20049;-76
2023/02/09 06:31:29;;;;;;;8.02;6.65;;;11.40;51.10;;;;;;4968757;28;20026;-78
2023/02/09 06:33:55;;;;;;;9.60;6.78;;;11.30;51.20;;;;;;4978930;28;20171;-76
2023/02/09 06:36:21;;;;;;;11.15;7.45;;;11.20;51.20;;;;;;4983132;28;20386;-78
2023/02/09 06:38:47;;;;;;;10.48;7.05;;;11.20;51.30;;;;;;5000459;28;20282;-76
2023/02/09 06:41:13;;;;;;;10.38;7.50;;;11.10;51.60;;;;;;4986615;28;20622;-77
2023/02/09 06:43:39;;;;;;;9.13;7.32;;;11.00;51.70;;;;;;4985533;28;20045;-77
2023/02/09 06:46:07;;;;;;;11.77;7.53;;;10.90;52.90;;;;;;4983848;28;20077;-77
2023/02/09 06:48:33;;;;;;;9.75;7.15;;;10.80;91.50;;;;;;4996913;28;20030;-78
2023/02/09 06:50:59;;;;;;;9.45;7.53;;;11.00;90.00;;;;;;4998918;28;20030;-78
2023/02/09 06:53:25;;;;;;;11.13;7.90;;;10.90;89.70;;;;;;4983553;28;20042;-76
2023/02/09 06:55:51;;;;;;;8.73;7.07;;;10.80;90.20;;;;;;4981805;28;20080;-77
2023/02/09 06:58:17;;;;;;;12.35;8.23;;;10.70;90.60;;;;;;4996507;28;20041;-77
2023/02/09 07:00:43;;;;;;;9.57;7.43;;;10.70;91.50;;;;;;4980839;28;20033;-76
2023/02/09 07:03:10;;;;;;;11.50;7.38;;;;;;;;;;4995311;28;20092;-76
2023/02/09 07:05:36;;;;;;;9.85;7.90;;;10.60;91.50;;;;;;4999462;28;20041;-76
2023/02/09 07:08:02;;;;;;;12.18;8.05;;;10.60;90.40;;;;;;4997794;28;20038;-75
2023/02/09 07:10:28;;;;;;;10.88;8.15;;;10.60;90.40;;;;;;4998121;28;20393;-76
2023/02/09 07:12:57;;;;;;;11.50;8.00;;;10.50;90.80;;;;;;4998796;28;20133;-76
2023/02/09 07:15:25;;;;;;;12.07;9.15;;;;;;;;;;4982509;28;20124;-77
2023/02/09 07:17:53;;;;;;;11.93;8.05;;;;;;;;;;4997284;28;20033;-76
2023/02/09 07:20:20;;;;;;;13.18;8.55;;;;;;;;;;4998008;28;20030;-76
2023/02/09 07:22:46;;;;;;;12.68;8.73;;;10.40;52.40;;;;;;4969988;28;20036;-77
2023/02/09 07:25:12;;;;;;;12.15;8.65;;;10.40;52.90;;;;;;4969294;28;20108;-77
2023/02/09 07:27:44;;;;;;;13.23;8.88;;;10.30;53.70;;;;;;4985275;28;20058;-76
2023/02/09 07:30:11;;;;;;;12.13;8.05;;;10.20;53.30;;;;;;4984223;28;20373;-76
2023/02/09 07:32:41;;;;;;;11.88;8.43;;;10.20;53.30;;;;;;5002404;28;20037;-77
2023/02/09 07:35:07;;;;;;;13.30;8.93;;;10.20;53.50;;;;;;4979089;28;20456;-77
2023/02/09 07:37:34;;;;;;;12.73;9.23;;;10.10;53.40;;;;;;4998899;28;20032;-78
2023/02/09 07:40:00;;;;;;;13.60;9.35;;;10.10;53.60;;;;;;4999104;28;20623;-77
2023/02/09 07:42:26;;;;;;;13.25;8.95;;;10.00;53.70;;;;;;4998826;28;20026;-76
2023/02/09 07:44:59;;;;;;;16.10;9.90;;;10.00;53.90;;;;;;4967175;28;20651;-77
2023/02/09 07:47:25;;;;;;;13.65;9.68;;;10.00;53.90;;;;;;4997062;28;20375;-77
2023/02/09 07:49:51;;;;;;;16.88;9.32;;;10.00;54.00;;;;;;4998592;28;20057;-77
2023/02/09 07:52:18;;;;;;;13.93;9.93;;;10.00;54.10;;;;;;4985010;28;20567;-77
2023/02/09 07:54:44;;;;;;;15.55;9.73;;;9.90;54.10;;;;;;4999786;28;20033;-77
2023/02/09 07:57:12;;;;;;;17.15;10.55;;;9.90;54.10;;;;;;4997372;28;20246;-77
2023/02/09 07:59:38;;;;;;;15.75;9.93;;;9.90;54.20;;;;;;4999526;28;20688;-77
2023/02/09 08:02:04;;;;;;;15.05;9.60;;;9.90;54.20;;;;;;4981081;28;20034;-76
2023/02/09 08:04:30;;;;;;;13.15;9.02;;;9.90;54.40;;;;;;4983945;28;20739;-77
2023/02/09 08:06:56;;;;;;;13.90;9.82;;;9.90;54.50;;;;;;4999304;28;20034;-77
2023/02/09 08:09:22;;;;;;;14.70;9.85;;;9.80;54.50;;;;;;4997548;28;20492;-77
2023/02/09 08:12:58;;;;;;;14.60;10.23;;;9.80;54.50;;;;;;4997782;28;20100;-77
2023/02/09 08:19:54;;;;;;;17.15;10.25;;;9.90;54.60;;;;;;4997078;28;20116;-77
2023/02/09 08:23:19;;;;;;;15.27;10.20;;;9.70;54.70;;;;;;4958668;28;20035;-77
2023/02/09 08:31:35;;;;;;;16.38;11.10;;;9.70;54.80;;;;;;4947336;28;20063;-77
2023/02/09 08:43:21;;;;;;;17.02;11.40;;;9.60;55.20;;;;;;4728674;30;20036;-78
2023/02/09 08:46:27;;;;;;;19.65;12.05;;;9.60;55.20;;;;;;4723180;30;20141;-77
2023/02/09 08:49:22;;;;;;;21.10;12.52;;;9.60;55.30;;;;;;4712897;30;20661;-76
2023/02/09 10:05:23;;;;;;;10.77;7.25;;;10.70;55.20;;;;;;4657398;30;20124;-79
2023/02/09 10:08:04;;;;;;;12.82;7.45;;;10.80;55.00;;;;;;4660191;30;20046;-80
2023/02/09 10:10:44;;;;;;;9.13;6.72;;;10.90;55.00;;;;;;4674644;30;20125;-77
2023/02/09 10:13:22;;;;;;;9.77;6.80;;;10.90;54.80;;;;;;4675475;30;20042;-76
2023/02/09 10:15:50;;;;;;;9.50;6.65;;;10.90;54.70;;;;;;4759523;29;20046;-77
2023/02/09 10:18:17;;;;;;;8.38;5.72;;;11.00;54.60;;;;;;4782602;29;20069;-77
2023/02/09 10:20:48;;;;;;;11.07;6.93;;;11.00;54.50;;;;;;4799483;29;20042;-78
2023/02/09 10:23:39;;;;;;;10.23;5.88;;;11.10;54.50;;;;;;4820244;29;20038;-78
2023/02/09 10:26:08;;;;;;;9.60;6.30;;;11.10;54.30;;;;;;4820231;29;20042;-78
2023/02/09 10:28:44;;;;;;;9.93;6.57;;;11.10;54.20;;;;;;4820749;29;20070;-78
2023/02/09 10:31:33;;;;;;;10.70;6.40;;;11.20;54.20;;;;;;4804024;29;20050;-78
2023/02/09 10:34:10;;;;;;;8.05;5.60;;;11.20;54.10;;;;;;4818976;29;20052;-78
2023/02/09 10:36:51;;;;;;;10.15;6.30;;;11.30;54.00;;;;;;4910096;28;20049;-77
2023/02/09 10:39:22;;;;;;;9.73;5.90;;;11.30;53.90;;;;;;5000365;28;20046;-77
2023/02/09 10:41:54;;;;;;;7.22;5.40;;;11.30;53.70;;;;;;5002397;28;20022;-77
2023/02/09 10:44:27;;;;;;;8.25;5.78;;;11.30;53.70;;;;;;5003327;28;20056;-77
2023/02/09 10:47:28;;;;;;;9.43;5.38;;;11.40;53.60;;;;;;5000900;28;20037;-78
2023/02/09 10:49:54;;;;;;;8.27;5.57;;;11.40;53.50;;;;;;5001032;28;20125;-77
2023/02/09 10:52:23;;;;;;;8.15;5.13;;;11.40;53.40;;;;;;5001973;28;20034;-78
2023/02/09 10:54:51;;;;;;;7.75;5.40;;;11.50;53.40;;;;;;4968024;28;20041;-77
2023/02/09 10:57:24;;;;;;;11.07;5.40;;;11.50;53.30;;;;;;4988133;28;20084;-77
2023/02/09 10:59:51;;;;;;;7.20;5.05;;;11.50;53.30;;;;;;4983893;28;20049;-77
2023/02/09 11:02:35;;;;;;;7.20;5.13;;;11.50;53.20;;;;;;4971594;28;20610;-78
2023/02/09 11:05:03;;;;;;;8.13;5.07;;;11.50;53.10;;;;;;4998354;28;20183;-77
2023/02/09 11:07:36;;;;;;;8.90;5.00;;;11.60;53.70;;;;;;5001951;28;20037;-77
2023/02/09 11:10:05;;;;;;;8.27;5.25;;;11.60;53.00;;;;;;4981793;28;20077;-77
2023/02/09 11:12:31;;;;;;;9.05;5.18;;;11.60;52.90;;;;;;4968957;28;20038;-77
2023/02/09 11:14:57;;;;;;;8.75;5.80;;;11.60;52.80;;;;;;5000450;28;20444;-77
2023/02/09 11:17:35;;;;;;;7.45;5.38;;;11.60;52.80;;;;;;4997971;28;20060;-77
2023/02/09 11:20:20;;;;;;;10.43;5.65;;;11.60;52.70;;;;;;4997336;28;20083;-77
2023/02/09 11:23:14;;;;;;;8.30;4.78;;;11.70;52.80;;;;;;5001348;28;20041;-77
2023/02/09 11:25:54;;;;;;;8.43;5.53;;;11.70;52.70;;;;;;4982998;28;20532;-77
2023/02/09 11:28:20;;;;;;;8.25;5.13;;;11.70;52.70;;;;;;4970736;28;20393;-77
2023/02/09 11:31:30;;;;;;;7.18;5.15;;;11.70;52.60;;;;;;4964321;28;20030;-78
2023/02/09 11:34:05;;;;;;;7.25;4.95;;;11.70;52.60;;;;;;4943777;28;20031;-77
2023/02/09 11:36:36;;;;;;;7.60;5.20;;;11.70;52.50;;;;;;4943179;28;20095;-77
2023/02/09 11:39:24;;;;;;;7.43;4.85;;;11.80;52.50;;;;;;4929960;28;20423;-77
2023/02/09 11:44:54;;;;;;;7.03;4.38;;;11.80;52.40;;;;;;4947931;28;20043;-78
2023/02/09 11:47:33;;;;;;;7.47;5.07;;;11.80;52.30;;;;;;4943886;28;20046;-78
2023/02/09 11:50:02;;;;;;;6.70;4.55;;;11.80;52.30;;;;;;4942950;28;20043;-78
2023/02/09 11:52:43;;;;;;;7.32;4.68;;;11.80;52.30;;;;;;4932596;28;20046;-77
2023/02/09 11:55:37;;;;;;;5.60;4.30;;;11.80;52.20;;;;;;4943323;28;20047;-77
2023/02/09 11:58:37;;;;;;;7.30;4.93;;;11.90;52.20;;;;;;4929405;28;20093;-78
2023/02/09 12:01:17;;;;;;;9.32;5.10;;;11.90;52.10;;;;;;4930969;28;20091;-77
2023/02/09 12:03:52;;;;;;;8.32;4.65;;;11.90;52.10;;;;;;4952548;28;20549;-77
2023/02/09 12:06:21;;;;;;;5.72;4.32;;;11.90;52.10;;;;;;4985562;28;20105;-79
2023/02/09 12:09:28;;;;;;;8.35;5.43;;;11.90;52.00;;;;;;4991212;28;20167;-78
2023/02/09 12:12:20;;;;;;;9.07;5.18;;;11.90;52.00;;;;;;5007159;28;20033;-78
2023/02/09 12:15:01;;;;;;;7.45;4.97;;;11.90;52.00;;;;;;5004266;28;20038;-79
2023/02/09 12:17:46;;;;;;;7.43;4.28;;;11.90;52.00;;;;;;5005969;28;20022;-79
2023/02/09 12:20:45;;;;;;;6.68;5.03;;;11.90;52.00;;;;;;5002653;28;20404;-79
2023/02/09 12:23:37;;;;;;;6.65;4.53;;;12.00;52.00;;;;;;4986058;28;21141;-79
2023/02/09 12:26:15;;;;;;;7.57;4.35;;;12.00;52.00;;;;;;5004592;28;20412;-78
2023/02/09 12:29:04;;;;;;;7.38;4.63;;;11.90;52.00;;;;;;4973322;28;20062;-78
2023/02/09 12:31:52;;;;;;;6.82;4.20;;;12.00;52.00;;;;;;5004972;28;20023;-78
2023/02/09 12:34:36;;;;;;;7.28;3.83;;;12.00;52.00;;;;;;5010369;28;20037;-79
2023/02/09 12:37:28;;;;;;;5.93;3.97;;;12.00;52.00;;;;;;5010318;28;20044;-79
2023/02/09 12:40:06;;;;;;;5.45;4.07;;;12.00;52.00;;;;;;4991399;28;20077;-79
2023/02/09 12:43:01;;;;;;;5.10;3.88;;;12.00;51.90;;;;;;5010248;28;20044;-79
2023/02/09 12:45:30;;;;;;;5.23;3.87;;;12.00;51.90;;;;;;4952278;28;20701;-79
2023/02/09 12:48:00;;;;;;;4.82;3.28;;;12.00;51.80;;;;;;4997740;28;20599;-80
2023/02/09 12:50:33;;;;;;;5.57;4.03;;;12.10;51.90;;;;;;5008247;28;20029;-79
2023/02/09 12:53:21;;;;;;;6.00;3.40;;;12.10;51.90;;;;;;4990107;28;20125;-79
2023/02/09 12:56:11;;;;;;;5.40;3.95;;;12.10;51.90;;;;;;4994105;28;20037;-79
2023/02/09 12:58:43;;;;;;;5.78;3.67;;;12.00;51.90;;;;;;5008298;28;20057;-79
2023/02/09 13:01:10;;;;;;;6.90;3.65;;;12.10;52.00;;;;;;4989307;28;20050;-78
2023/02/09 13:03:42;;;;;;;6.07;4.03;;;12.10;52.00;;;;;;4994411;28;20420;-79
2023/02/09 13:06:23;;;;;;;7.38;4.10;;;12.10;52.10;;;;;;4974196;28;20527;-77
2023/02/09 13:08:53;;;;;;;6.75;3.63;;;12.10;52.10;;;;;;5008078;28;20492;-79
2023/02/09 13:11:30;;;;;;;8.60;4.20;;;12.10;52.20;;;;;;4976666;28;20045;-80
2023/02/09 13:14:02;;;;;;;8.73;4.47;;;12.10;52.30;;;;;;4991823;28;20121;-79
2023/02/09 13:16:45;;;;;;;8.98;4.30;;;12.10;52.50;;;;;;4971424;28;20030;-78
2023/02/09 13:19:38;;;;;;;7.70;4.03;;;12.10;52.70;;;;;;5009067;28;20038;-80
2023/02/09 13:22:45;;;;;;;8.73;4.07;;;12.20;52.90;;;;;;5000045;28;20042;-79
2023/02/09 13:25:33;;;;;;;8.10;3.70;;;12.20;53.10;;;;;;4974522;28;20046;-79
2023/02/09 13:28:25;;;;;;;10.25;4.50;;;12.20;53.20;;;;;;4992227;28;20065;-80
2023/02/09 13:30:52;;;;;;;7.03;3.80;;;12.20;53.20;;;;;;4975741;28;20049;-78
2023/02/09 13:33:30;;;;;;;6.55;3.40;;;12.20;53.10;;;;;;4990227;28;20029;-79
2023/02/09 13:35:59;;;;;;;6.63;4.30;;;12.20;53.10;;;;;;4984128;28;20412;-78
2023/02/09 13:38:28;;;;;;;7.80;3.80;;;12.20;53.10;;;;;;5010203;28;20089;-78
2023/02/09 13:40:54;;;;;;;7.75;3.85;;;12.20;53.00;;;;;;4992645;28;20297;-78
2023/02/09 13:43:42;;;;;;;6.88;3.85;;;12.20;53.00;;;;;;4990604;28;20041;-79
2023/02/09 13:46:25;;;;;;;7.30;3.92;;;12.20;52.90;;;;;;5014438;28;20018;-79
2023/02/09 13:49:09;;;;;;;7.00;3.83;;;12.20;52.80;;;;;;5001431;28;20030;-79
2023/02/09 13:51:35;;;;;;;5.93;3.88;;;12.20;52.80;;;;;;4990344;28;20034;-79
2023/02/09 13:54:02;;;;;;;7.43;3.65;;;12.20;52.80;;;;;;4992032;28;20137;-82
2023/02/09 13:56:31;;;;;;;6.68;3.05;;;12.20;52.70;;;;;;4974436;28;20153;-80
2023/02/09 13:58:58;;;;;;;5.82;3.40;;;12.30;52.70;;;;;;5005574;28;20073;-80
2023/02/09 14:01:32;;;;;;;5.82;3.53;;;12.30;52.60;;;;;;5010898;28;20045;-81
2023/02/09 14:04:01;;;;;;;6.85;3.20;;;12.30;52.60;;;;;;5005947;28;20053;-80
2023/02/09 14:06:36;;;;;;;5.55;3.38;;;12.30;52.50;;;;;;5008952;28;20074;-81
2023/02/09 14:09:09;;;;;;;6.10;3.30;;;12.30;52.40;;;;;;5008510;28;20038;-81
2023/02/09 14:11:44;;;;;;;5.80;3.40;;;12.30;52.30;;;;;;5009368;28;20042;-81
2023/02/09 14:14:22;;;;;;;4.95;3.00;;;12.30;52.20;;;;;;5005898;28;20082;-80
2023/02/09 14:17:19;;;;;;;4.85;3.10;;;12.30;52.20;;;;;;5008788;28;20103;-81
2023/02/09 14:19:47;;;;;;;7.00;3.72;;;12.30;52.10;;;;;;5008074;28;20055;-81
2023/02/09 14:22:41;;;;;;;3.80;3.30;;;12.30;52.00;;;;;;5006193;28;20033;-78
2023/02/09 14:25:13;;;;;;;8.20;3.90;;;12.30;52.00;;;;;;4990064;28;20045;-79
2023/02/09 14:27:40;;;;;;;4.53;3.08;;;12.30;51.90;;;;;;4988415;28;20080;-78
2023/02/09 14:30:30;;;;;;;5.43;3.60;;;12.30;51.90;;;;;;4999996;28;20034;-79
2023/02/09 14:32:59;;;;;;;5.28;3.10;;;12.30;51.80;;;;;;4983361;28;20033;-79
2023/02/09 14:35:29;;;;;;;6.22;3.42;;;12.30;51.80;;;;;;4986673;28;20038;-81
2023/02/09 14:37:58;;;;;;;4.97;3.20;;;12.30;51.80;;;;;;4985157;28;20220;-80
2023/02/09 14:40:36;;;;;;;4.93;3.25;;;12.30;51.70;;;;;;4973389;28;20128;-79
2023/02/09 14:43:09;;;;;;;3.97;3.10;;;12.30;51.60;;;;;;4980429;28;20034;-78
2023/02/09 14:45:45;;;;;;;5.20;3.42;;;12.30;51.50;;;;;;5001415;28;20151;-78
2023/02/09 14:48:14;;;;;;;;;;;12.40;51.60;;;;;;4985664;28;20034;-80
2023/02/09 14:50:40;;;;;;;3.70;2.95;;;12.40;51.50;;;;;;4999410;28;20314;-78
2023/02/09 14:53:10;;;;;;;3.88;2.88;;;12.40;51.50;;;;;;4984028;28;20512;-78
2023/02/09 14:55:39;;;;;;;5.18;2.97;;;12.40;51.50;;;;;;5001095;28;20116;-79